createdAt,value
2023-04-28T00:00:13.715Z,7.50
2023-04-28T00:02:40.334Z,5.30
2023-04-28T00:05:07.306Z,7.65
2023-04-28T00:07:34.042Z,5.53
2023-04-28T00:10:00.670Z,7.03
2023-04-28T00:12:27.217Z,8.68
2023-04-28T00:14:54.983Z,9.20
2023-04-28T00:17:21.540Z,7.20
2023-04-28T00:19:47.992Z,9.52
2023-04-28T00:22:15.210Z,7.28
2023-04-28T00:24:44.663Z,11.23
2023-04-28T00:27:11.197Z,6.55
2023-04-28T00:29:37.601Z,5.35
2023-04-28T00:32:04.346Z,6.28
2023-04-28T00:34:34.482Z,7.22
2023-04-28T00:37:00.927Z,5.57
2023-04-28T00:39:27.845Z,5.93
2023-04-28T00:41:54.284Z,6.28
2023-04-28T00:44:21.119Z,6.22
2023-04-28T00:46:47.914Z,6.38
2023-04-28T00:49:16.238Z,6.93
2023-04-28T00:51:45.763Z,8.68
2023-04-28T00:54:15.777Z,6.68
2023-04-28T00:56:43.826Z,6.07
2023-04-28T00:59:13.036Z,5.18
2023-04-28T01:01:39.680Z,9.07
2023-04-28T01:04:06.448Z,7.90
2023-04-28T01:06:34.290Z,6.57
2023-04-28T01:09:00.859Z,7.15
2023-04-28T01:11:27.272Z,5.25
2023-04-28T01:13:53.697Z,5.72
2023-04-28T01:16:20.630Z,5.75
2023-04-28T01:18:48.260Z,6.07
2023-04-28T01:21:14.941Z,4.97
2023-04-28T01:23:41.924Z,7.05
2023-04-28T01:26:08.521Z,4.95
2023-04-28T01:28:34.939Z,6.25
2023-04-28T01:31:01.364Z,6.07
2023-04-28T01:33:27.857Z,7.95
2023-04-28T01:35:58.430Z,5.97
2023-04-28T01:38:25.049Z,4.82
2023-04-28T01:40:54.766Z,6.15
2023-04-28T01:43:23.375Z,6.88
2023-04-28T01:45:50.145Z,6.00
2023-04-28T01:48:17.019Z,5.72
2023-04-28T01:50:43.372Z,5.65
2023-04-28T01:53:09.958Z,5.03
2023-04-28T01:55:38.415Z,6.85
2023-04-28T01:58:04.898Z,6.07
2023-04-28T02:00:31.373Z,6.18
2023-04-28T02:02:58.049Z,5.47
2023-04-28T02:05:25.636Z,6.53
2023-04-28T02:07:52.101Z,6.65
2023-04-28T02:10:21.669Z,5.25
2023-04-28T02:12:48.232Z,6.47
2023-04-28T02:15:14.884Z,6.85
2023-04-28T02:17:41.502Z,4.65
2023-04-28T02:20:10.132Z,7.75
2023-04-28T02:22:36.680Z,8.88
2023-04-28T02:25:03.512Z,7.22
2023-04-28T02:27:30.302Z,6.55
2023-04-28T02:29:56.804Z,6.28
2023-04-28T02:32:24.287Z,6.60
2023-04-28T02:34:55.430Z,5.03
2023-04-28T02:37:22.346Z,6.47
2023-04-28T02:39:48.886Z,7.00
2023-04-28T02:42:15.872Z,6.70
2023-04-28T02:44:42.286Z,4.90
2023-04-28T02:47:09.987Z,7.60
2023-04-28T02:49:36.485Z,5.95
2023-04-28T02:52:02.865Z,7.80
2023-04-28T02:54:37.274Z,6.80
2023-04-28T02:57:04.627Z,7.55
2023-04-28T02:59:31.494Z,8.98
2023-04-28T03:01:58.139Z,6.13
2023-04-28T03:04:24.941Z,6.20
2023-04-28T03:06:51.646Z,10.65
2023-04-28T03:09:17.990Z,6.93
2023-04-28T03:11:44.598Z,9.00
2023-04-28T03:14:14.109Z,6.80
2023-04-28T03:16:40.998Z,7.15
2023-04-28T03:19:07.505Z,7.50
2023-04-28T03:21:34.097Z,7.45
2023-04-28T03:24:01.314Z,5.63
2023-04-28T03:26:28.389Z,6.28
2023-04-28T03:28:55.596Z,7.40
2023-04-28T03:31:22.091Z,6.70
2023-04-28T03:33:48.678Z,8.55
2023-04-28T03:36:22.395Z,6.38
2023-04-28T03:38:50.517Z,6.68
2023-04-28T03:41:17.023Z,5.22
2023-04-28T03:43:43.553Z,6.93
2023-04-28T03:46:13.248Z,7.32
2023-04-28T03:48:39.768Z,7.55
2023-04-28T03:51:06.298Z,9.00
2023-04-28T03:53:33.027Z,7.10
2023-04-28T03:55:59.559Z,7.68
2023-04-28T03:58:25.967Z,7.72
2023-04-28T04:00:55.374Z,6.28
2023-04-28T04:03:25.689Z,7.57
2023-04-28T04:05:52.707Z,6.25
2023-04-28T04:08:20.120Z,8.35
2023-04-28T04:10:47.125Z,8.02
2023-04-28T04:13:13.511Z,7.38
2023-04-28T04:15:43.083Z,6.72
2023-04-28T04:18:10.082Z,9.35
2023-04-28T04:20:36.573Z,6.80
2023-04-28T04:23:05.092Z,8.15
2023-04-28T04:25:32.482Z,5.85
2023-04-28T04:28:01.480Z,9.48
2023-04-28T04:30:28.006Z,6.88
2023-04-28T04:32:56.110Z,8.00
2023-04-28T04:35:22.926Z,6.22
2023-04-28T04:37:49.479Z,6.53
2023-04-28T04:40:16.370Z,7.57
2023-04-28T04:42:42.760Z,6.72
2023-04-28T04:45:09.696Z,5.93
2023-04-28T04:47:36.254Z,7.70
2023-04-28T04:50:02.747Z,7.25
2023-04-28T04:52:29.693Z,6.88
2023-04-28T04:54:56.591Z,9.82
2023-04-28T04:57:23.222Z,9.63
2023-04-28T04:59:49.732Z,5.32
2023-04-28T05:02:19.967Z,9.10
2023-04-28T05:04:47.314Z,9.90
2023-04-28T05:07:13.986Z,16.05
2023-04-28T05:09:40.418Z,11.73
2023-04-28T05:12:09.420Z,5.55
2023-04-28T05:14:36.128Z,6.55
2023-04-28T05:17:02.898Z,8.10
2023-04-28T05:19:29.456Z,9.00
2023-04-28T05:21:56.153Z,9.45
2023-04-28T05:24:25.775Z,7.68
2023-04-28T05:26:52.862Z,6.97
2023-04-28T05:29:19.632Z,6.72
2023-04-28T05:31:46.296Z,7.50
2023-04-28T05:34:12.769Z,11.13
2023-04-28T05:36:39.447Z,7.63
2023-04-28T05:39:06.008Z,8.55
2023-04-28T05:41:32.543Z,7.13
2023-04-28T05:43:59.130Z,7.47
2023-04-28T05:46:30.757Z,8.13
2023-04-28T05:48:57.957Z,7.65
2023-04-28T05:51:24.376Z,7.38
2023-04-28T05:53:50.821Z,10.82
2023-04-28T05:56:17.500Z,7.55
2023-04-28T05:58:50.788Z,11.35
2023-04-28T06:01:17.901Z,9.15
2023-04-28T06:03:45.261Z,9.57
2023-04-28T06:06:12.927Z,7.97
2023-04-28T06:08:39.464Z,11.73
2023-04-28T06:11:06.731Z,10.70
2023-04-28T06:13:33.399Z,7.70
2023-04-28T06:15:59.937Z,10.32
2023-04-28T06:18:27.416Z,8.23
2023-04-28T06:20:53.826Z,9.32
2023-04-28T06:23:20.347Z,9.55
2023-04-28T06:25:46.951Z,8.95
2023-04-28T06:28:14.883Z,9.77
2023-04-28T06:30:41.590Z,7.95
2023-04-28T06:33:08.260Z,9.73
2023-04-28T06:35:36.616Z,11.45
2023-04-28T06:38:04.664Z,13.07
2023-04-28T06:40:31.850Z,9.68
2023-04-28T06:42:58.611Z,10.85
2023-04-28T06:45:25.197Z,9.60
2023-04-28T06:47:55.829Z,11.85
2023-04-28T06:50:23.565Z,14.70
2023-04-28T06:52:50.012Z,11.55
2023-04-28T06:55:19.694Z,14.40
2023-04-28T06:57:46.184Z,12.45
2023-04-28T07:00:13.446Z,10.02
2023-04-28T07:02:40.577Z,11.90
2023-04-28T07:05:07.343Z,13.82
2023-04-28T07:07:33.747Z,14.43
2023-04-28T07:10:01.060Z,12.00
2023-04-28T07:12:27.727Z,12.23
2023-04-28T07:14:55.753Z,12.80
2023-04-28T07:17:22.305Z,10.15
2023-04-28T07:19:50.890Z,14.80
2023-04-28T07:22:17.929Z,12.02
2023-04-28T07:24:44.638Z,15.20
2023-04-28T07:27:11.169Z,15.35
2023-04-28T07:29:38.210Z,12.23
2023-04-28T07:32:07.470Z,11.32
2023-04-28T07:34:35.897Z,11.27
2023-04-28T07:37:03.654Z,11.77
2023-04-28T07:39:34.901Z,12.07
2023-04-28T07:42:03.060Z,11.52
2023-04-28T07:44:30.312Z,10.38
2023-04-28T07:46:57.167Z,14.70
2023-04-28T07:49:25.081Z,13.52
2023-04-28T07:51:53.641Z,12.55
2023-04-28T07:54:20.300Z,13.63
2023-04-28T07:56:47.201Z,13.95
2023-04-28T07:59:14.221Z,11.25
2023-04-28T08:01:41.079Z,13.38
2023-04-28T08:04:08.134Z,11.55
2023-04-28T08:06:36.215Z,14.38
2023-04-28T08:09:02.677Z,15.50
2023-04-28T08:11:29.121Z,14.25
2023-04-28T08:14:01.099Z,13.30
2023-04-28T08:16:28.668Z,13.48
2023-04-28T08:18:55.288Z,16.73
2023-04-28T08:21:22.054Z,13.30
2023-04-28T08:23:48.861Z,15.10
2023-04-28T08:26:15.695Z,12.23
2023-04-28T08:28:42.146Z,13.40
2023-04-28T08:31:09.069Z,16.17
2023-04-28T08:33:35.685Z,17.20
2023-04-28T08:36:02.117Z,14.40
2023-04-28T08:38:28.606Z,11.98
2023-04-28T08:40:55.059Z,15.48
2023-04-28T08:43:22.068Z,14.48
2023-04-28T08:45:48.480Z,16.77
2023-04-28T08:48:22.792Z,15.35
2023-04-28T08:50:52.583Z,13.43
2023-04-28T08:53:26.965Z,16.25
2023-04-28T08:55:57.983Z,15.13
2023-04-28T08:58:27.488Z,15.35
2023-04-28T09:00:54.712Z,13.30
2023-04-28T09:03:21.955Z,14.15
2023-04-28T09:05:49.389Z,15.80
2023-04-28T09:08:16.058Z,16.73
2023-04-28T09:10:45.424Z,15.57
2023-04-28T09:13:25.431Z,14.63
2023-04-28T09:15:59.730Z,19.35
2023-04-28T09:18:26.323Z,19.58
2023-04-28T09:20:52.814Z,13.90
2023-04-28T09:23:21.291Z,15.73
2023-04-28T09:25:59.679Z,15.75
2023-04-28T09:28:26.326Z,21.02
2023-04-28T09:30:52.940Z,16.02
2023-04-28T09:33:21.861Z,16.05
2023-04-28T09:35:50.773Z,16.48
2023-04-28T09:38:20.545Z,17.65
2023-04-28T09:40:52.671Z,19.60
2023-04-28T09:45:57.383Z,18.08
2023-04-28T09:48:35.518Z,18.63
2023-04-28T09:51:07.757Z,16.88
2023-04-28T09:53:37.382Z,18.58
2023-04-28T09:56:05.416Z,16.98
2023-04-28T09:58:35.290Z,16.92
2023-04-28T10:01:01.980Z,17.65
2023-04-28T10:03:30.810Z,15.57
2023-04-28T10:05:59.473Z,15.60
2023-04-28T10:08:27.434Z,16.15
2023-04-28T10:10:55.428Z,15.52
2023-04-28T10:13:23.218Z,16.00
2023-04-28T10:15:51.208Z,14.52
2023-04-28T10:18:18.506Z,14.88
2023-04-28T10:20:50.137Z,13.02
2023-04-28T10:23:36.636Z,15.23
2023-04-28T10:26:10.362Z,11.82
2023-04-28T10:28:44.338Z,11.38
2023-04-28T10:31:21.279Z,13.23
2023-04-28T10:33:48.787Z,13.85
2023-04-28T10:36:55.010Z,14.43
2023-04-28T10:39:23.937Z,14.15
2023-04-28T10:41:51.484Z,13.85
2023-04-28T10:44:45.633Z,15.68
2023-04-28T10:47:12.284Z,16.52
2023-04-28T10:50:01.350Z,13.80
2023-04-28T10:52:41.000Z,12.48
2023-04-28T10:55:41.063Z,15.65
2023-04-28T10:58:19.495Z,16.33
2023-04-28T11:00:53.350Z,15.75
2023-04-28T11:03:44.983Z,14.70
2023-04-28T11:06:28.825Z,15.43
2023-04-28T11:09:01.539Z,14.50
2023-04-28T11:11:33.498Z,15.30
2023-04-28T11:14:29.899Z,14.77
2023-04-28T11:17:02.859Z,14.90
2023-04-28T11:19:31.611Z,14.10
2023-04-28T11:21:59.807Z,14.68
2023-04-28T11:24:29.882Z,15.23
2023-04-28T11:26:58.052Z,13.70
2023-04-28T11:29:38.610Z,13.43
2023-04-28T11:32:09.863Z,11.40
2023-04-28T11:34:40.128Z,11.82
2023-04-28T11:37:08.387Z,11.23
2023-04-28T11:39:35.358Z,12.30
2023-04-28T11:42:09.336Z,9.00
2023-04-28T11:44:35.815Z,10.65
2023-04-28T11:47:04.050Z,11.50
2023-04-28T11:49:44.747Z,8.05
2023-04-28T11:52:12.060Z,9.95
2023-04-28T11:54:44.580Z,9.27
2023-04-28T11:57:18.537Z,8.95
2023-04-28T11:59:46.329Z,8.43
2023-04-28T12:02:13.117Z,9.85
2023-04-28T12:04:42.087Z,7.45
2023-04-28T12:07:12.671Z,10.05
2023-04-28T12:09:48.215Z,10.57
2023-04-28T12:12:45.468Z,8.88
2023-04-28T12:15:17.979Z,10.83
2023-04-28T12:17:46.216Z,10.15
2023-04-28T12:20:39.573Z,9.60
2023-04-28T12:23:07.575Z,8.63
2023-04-28T12:25:43.606Z,8.98
2023-04-28T12:28:10.786Z,7.75
2023-04-28T12:30:44.105Z,7.47
2023-04-28T12:33:29.045Z,8.38
2023-04-28T12:35:58.916Z,8.40
2023-04-28T12:38:27.433Z,7.07
2023-04-28T12:40:54.424Z,7.18
2023-04-28T12:43:23.462Z,8.77
2023-04-28T12:45:55.116Z,6.18
2023-04-28T12:48:23.673Z,5.13
2023-04-28T12:50:50.520Z,5.68
2023-04-28T12:53:17.090Z,4.53
2023-04-28T12:55:44.026Z,4.32
2023-04-28T12:58:10.557Z,4.65
2023-04-28T13:00:38.565Z,4.10
2023-04-28T13:03:08.092Z,3.95
2023-04-28T13:05:35.220Z,2.45
2023-04-28T13:08:01.785Z,2.95
2023-04-28T13:10:29.713Z,3.17
2023-04-28T13:12:56.487Z,2.38
2023-04-28T13:15:25.338Z,2.40
2023-04-28T13:17:51.970Z,3.25
2023-04-28T13:20:18.522Z,2.65
2023-04-28T13:22:45.148Z,2.72
2023-04-28T13:25:11.668Z,2.88
2023-04-28T13:27:38.818Z,2.38
2023-04-28T13:30:06.668Z,2.75
2023-04-28T13:32:33.470Z,4.13
2023-04-28T13:34:59.869Z,3.17
2023-04-28T13:37:26.480Z,2.80
2023-04-28T13:39:52.976Z,3.33
2023-04-28T13:42:19.710Z,2.55
2023-04-28T13:44:49.263Z,3.53
2023-04-28T13:47:18.745Z,3.13
2023-04-28T13:49:45.153Z,4.80
2023-04-28T13:52:11.633Z,4.05
2023-04-28T13:54:38.310Z,5.15
2023-04-28T13:57:04.737Z,7.65
2023-04-28T13:59:31.362Z,6.05
2023-04-28T14:01:57.811Z,6.80
2023-04-28T14:04:24.859Z,9.57
2023-04-28T14:06:52.462Z,7.38
2023-04-28T14:09:19.204Z,12.27
2023-04-28T14:11:46.813Z,15.55
2023-04-28T14:14:15.929Z,15.18
2023-04-28T14:16:42.758Z,14.57
2023-04-28T14:19:09.456Z,15.25
2023-04-28T14:21:36.961Z,16.40
2023-04-28T14:24:03.779Z,16.52
2023-04-28T14:26:30.601Z,17.73
2023-04-28T14:28:57.201Z,18.05
2023-04-28T14:31:23.832Z,19.15
2023-04-28T14:33:50.493Z,15.27
2023-04-28T14:36:17.046Z,18.98
2023-04-28T14:38:43.625Z,18.10
2023-04-28T14:41:11.458Z,19.00
2023-04-28T14:43:38.186Z,21.08
2023-04-28T14:46:05.702Z,21.63
2023-04-28T14:48:33.844Z,22.65
2023-04-28T14:51:01.783Z,21.95
2023-04-28T14:53:30.113Z,22.42
2023-04-28T14:56:01.902Z,29.85
2023-04-28T14:58:37.567Z,24.25
2023-04-28T15:01:04.210Z,22.13
2023-04-28T15:03:30.897Z,24.80
2023-04-28T15:05:57.385Z,21.77
2023-04-28T15:08:23.833Z,22.65
2023-04-28T15:10:50.239Z,20.90
2023-04-28T15:13:16.867Z,22.80
2023-04-28T15:15:43.767Z,18.98
2023-04-28T15:18:10.882Z,17.15
2023-04-28T15:20:38.347Z,15.80
2023-04-28T15:23:04.893Z,17.33
2023-04-28T15:25:31.418Z,18.13
2023-04-28T15:27:58.408Z,16.48
2023-04-28T15:30:24.799Z,14.73
2023-04-28T15:32:51.406Z,15.85
2023-04-28T15:35:18.045Z,15.65
2023-04-28T15:37:47.659Z,12.95
2023-04-28T15:40:16.679Z,12.18
2023-04-28T15:42:48.807Z,21.15
2023-04-28T15:45:16.756Z,16.30
2023-04-28T15:47:43.436Z,18.80
2023-04-28T15:50:11.883Z,15.32
2023-04-28T15:52:40.979Z,14.75
2023-04-28T15:55:08.447Z,14.30
2023-04-28T15:57:34.871Z,18.83
2023-04-28T16:00:01.731Z,14.45
2023-04-28T16:02:28.724Z,14.02
2023-04-28T16:04:55.136Z,15.13
2023-04-28T16:07:22.360Z,19.50
2023-04-28T16:09:48.769Z,19.38
2023-04-28T16:12:15.419Z,14.85
2023-04-28T16:14:42.335Z,15.10
2023-04-28T16:17:08.876Z,17.75
2023-04-28T16:19:37.908Z,19.92
2023-04-28T16:22:04.397Z,14.10
2023-04-28T16:24:32.370Z,19.30
2023-04-28T16:26:59.164Z,14.20
2023-04-28T16:29:26.478Z,16.10
2023-04-28T16:31:53.083Z,14.63
2023-04-28T16:34:19.519Z,17.38
2023-04-28T16:36:46.319Z,14.43
2023-04-28T16:39:13.119Z,20.63
2023-04-28T16:41:39.518Z,16.13
2023-04-28T16:44:06.080Z,12.55
2023-04-28T16:46:32.578Z,16.40
2023-04-28T16:48:59.072Z,16.08
2023-04-28T16:51:25.517Z,15.20
2023-04-28T16:53:52.275Z,14.15
2023-04-28T16:56:18.692Z,14.68
2023-04-28T16:58:45.337Z,13.25
2023-04-28T17:01:11.996Z,11.50
2023-04-28T17:03:41.921Z,12.75
2023-04-28T17:06:09.019Z,12.40
2023-04-28T17:08:35.547Z,11.70
2023-04-28T17:11:04.266Z,12.90
2023-04-28T17:13:34.106Z,16.02
2023-04-28T17:16:01.127Z,16.13
2023-04-28T17:18:31.345Z,14.13
2023-04-28T17:20:57.932Z,14.63
2023-04-28T17:23:24.446Z,14.70
2023-04-28T17:25:50.897Z,14.27
2023-04-28T17:28:17.401Z,14.63
2023-04-28T17:30:47.072Z,13.57
2023-04-28T17:33:13.952Z,16.30
2023-04-28T17:35:40.555Z,16.02
2023-04-28T17:38:07.001Z,15.48
2023-04-28T17:40:33.471Z,21.13
2023-04-28T17:42:59.948Z,19.75
2023-04-28T17:45:26.544Z,20.17
2023-04-28T17:47:53.160Z,22.92
2023-04-28T17:50:19.637Z,22.75
2023-04-28T17:52:46.114Z,21.35
2023-04-28T17:55:14.456Z,20.08
2023-04-28T17:57:41.100Z,19.95
2023-04-28T18:00:08.138Z,21.27
2023-04-28T18:02:35.016Z,19.23
2023-04-28T18:05:01.691Z,20.45
2023-04-28T18:07:28.260Z,21.45
2023-04-28T18:09:57.122Z,22.75
2023-04-28T18:12:27.120Z,16.85
2023-04-28T18:14:54.306Z,25.73
2023-04-28T18:17:23.013Z,17.52
2023-04-28T18:19:55.453Z,16.08
2023-04-28T18:22:22.204Z,19.90
2023-04-28T18:24:49.814Z,19.65
2023-04-28T18:27:16.588Z,16.45
2023-04-28T18:29:43.006Z,15.93
2023-04-28T18:32:14.573Z,16.52
2023-04-28T18:37:07.897Z,18.55
2023-04-28T18:39:34.385Z,22.60
2023-04-28T18:42:03.066Z,16.58
2023-04-28T18:44:31.431Z,15.75
2023-04-28T18:47:04.275Z,17.08
2023-04-28T18:49:32.192Z,18.65
2023-04-28T18:52:03.394Z,18.85
2023-04-28T18:54:31.195Z,16.35
2023-04-28T18:56:57.636Z,18.30
2023-04-28T18:59:26.266Z,21.80
2023-04-28T19:01:52.740Z,19.33
2023-04-28T19:04:21.701Z,21.75
2023-04-28T19:06:48.837Z,21.23
2023-04-28T19:09:15.479Z,23.98
2023-04-28T19:11:42.059Z,23.58
2023-04-28T19:14:08.557Z,29.10
2023-04-28T19:16:36.613Z,25.30
2023-04-28T19:19:03.225Z,24.80
2023-04-28T19:21:33.130Z,22.60
2023-04-28T19:23:59.571Z,28.60
2023-04-28T19:26:26.071Z,25.55
2023-04-28T19:28:53.378Z,29.52
2023-04-28T19:31:21.007Z,31.67
2023-04-28T19:33:47.550Z,31.77
2023-04-28T19:36:13.922Z,33.90
2023-04-28T19:38:40.523Z,33.67
2023-04-28T19:41:07.216Z,34.22
2023-04-28T19:43:36.777Z,38.90
2023-04-28T19:46:05.974Z,31.77
2023-04-28T19:48:32.437Z,33.67
2023-04-28T19:50:58.821Z,36.08
2023-04-28T19:53:25.268Z,40.67
2023-04-28T19:55:52.809Z,32.70
2023-04-28T19:58:19.390Z,37.65
2023-04-28T20:00:49.818Z,44.95
2023-04-28T20:03:16.882Z,42.60
2023-04-28T20:05:43.481Z,45.30
2023-04-28T20:08:09.928Z,44.45
2023-04-28T20:10:36.398Z,42.38
2023-04-28T20:13:03.056Z,45.25
2023-04-28T20:15:29.560Z,43.15
2023-04-28T20:17:56.126Z,42.42
2023-04-28T20:20:22.736Z,43.00
2023-04-28T20:22:50.663Z,45.75
2023-04-28T20:25:17.502Z,51.47
2023-04-28T20:27:45.599Z,46.63
2023-04-28T20:30:12.189Z,48.22
2023-04-28T20:32:44.862Z,51.70
2023-04-28T20:35:11.949Z,46.35
2023-04-28T20:37:38.645Z,43.42
2023-04-28T20:40:06.195Z,50.85
2023-04-28T20:42:33.169Z,48.80
2023-04-28T20:44:59.919Z,61.25
2023-04-28T20:47:26.399Z,55.92
2023-04-28T20:49:53.202Z,43.15
2023-04-28T20:52:19.776Z,37.70
2023-04-28T20:54:47.027Z,28.98
2023-04-28T20:57:13.568Z,32.20
2023-04-28T20:59:40.203Z,27.13
2023-04-28T21:02:06.869Z,29.17
2023-04-28T21:04:34.532Z,27.52
2023-04-28T21:07:01.182Z,26.58
2023-04-28T21:09:27.700Z,28.17
2023-04-28T21:11:55.014Z,25.30
2023-04-28T21:14:22.093Z,21.95
2023-04-28T21:16:48.608Z,22.92
2023-04-28T21:19:15.179Z,22.02
2023-04-28T21:21:41.868Z,22.38
2023-04-28T21:24:09.228Z,22.23
2023-04-28T21:26:36.598Z,24.38
2023-04-28T21:29:03.310Z,22.85
2023-04-28T21:31:30.879Z,21.17
2023-04-28T21:33:57.592Z,23.10
2023-04-28T21:36:24.145Z,20.42
2023-04-28T21:38:50.682Z,19.50
2023-04-28T21:41:17.153Z,17.20
2023-04-28T21:43:43.698Z,17.67
2023-04-28T21:46:10.926Z,17.75
2023-04-28T21:48:37.530Z,16.88
2023-04-28T21:51:04.557Z,17.95
2023-04-28T21:53:31.150Z,14.82
2023-04-28T21:55:57.672Z,15.82
2023-04-28T21:58:24.203Z,19.30
2023-04-28T22:00:51.163Z,18.15
2023-04-28T22:03:18.020Z,16.85
2023-04-28T22:05:46.979Z,15.60
2023-04-28T22:08:14.805Z,14.95
2023-04-28T22:10:41.582Z,14.00
2023-04-28T22:13:08.088Z,16.67
2023-04-28T22:15:34.647Z,13.95
2023-04-28T22:18:01.715Z,11.98
2023-04-28T22:20:28.479Z,13.23
2023-04-28T22:22:55.419Z,15.13
2023-04-28T22:25:22.100Z,13.18
2023-04-28T22:27:48.631Z,12.50
2023-04-28T22:30:16.998Z,14.63
2023-04-28T22:32:47.116Z,13.65
2023-04-28T22:35:19.309Z,13.48
2023-04-28T22:37:45.764Z,15.13
2023-04-28T22:40:12.290Z,15.98
2023-04-28T22:42:39.969Z,15.55
2023-04-28T22:45:07.186Z,18.83
2023-04-28T22:47:34.584Z,19.15
2023-04-28T22:50:03.688Z,22.02
2023-04-28T22:52:30.192Z,21.25
2023-04-28T22:54:57.870Z,24.70
2023-04-28T22:57:24.637Z,21.55
2023-04-28T22:59:51.387Z,21.63
2023-04-28T23:02:18.108Z,27.63
2023-04-28T23:04:44.680Z,25.63
2023-04-28T23:07:11.198Z,29.13
2023-04-28T23:09:37.929Z,30.40
2023-04-28T23:12:05.047Z,27.70
2023-04-28T23:14:32.249Z,38.63
2023-04-28T23:16:58.776Z,31.20
2023-04-28T23:19:25.345Z,29.88
2023-04-28T23:21:51.775Z,28.50
2023-04-28T23:24:18.261Z,28.13
2023-04-28T23:26:44.727Z,27.88
2023-04-28T23:29:11.467Z,30.95
2023-04-28T23:31:39.786Z,32.13
2023-04-28T23:34:06.499Z,35.15
2023-04-28T23:36:39.570Z,28.92
2023-04-28T23:39:06.020Z,30.27
2023-04-28T23:41:32.458Z,32.08
2023-04-28T23:43:58.981Z,29.25
2023-04-28T23:46:25.410Z,28.35
2023-04-28T23:48:52.038Z,28.95
2023-04-28T23:51:19.141Z,31.17
2023-04-28T23:53:45.589Z,30.48
2023-04-28T23:56:12.007Z,28.27
2023-04-28T23:58:38.770Z,31.60
